createdAt,value
2019-04-28T00:04:36.653Z,97939.00
2019-04-28T00:09:45.085Z,97948.00
2019-04-28T00:14:52.600Z,97940.00
2019-04-28T00:20:01.494Z,97940.00
2019-04-28T00:25:11.986Z,97955.00
2019-04-28T00:30:21.747Z,97954.00
2019-04-28T00:35:29.610Z,97948.00
2019-04-28T00:40:37.523Z,97951.00
2019-04-28T00:45:45.916Z,97953.00
2019-04-28T00:50:53.444Z,97947.00
2019-04-28T00:56:03.372Z,97948.00
2019-04-28T01:01:22.866Z,97943.00
2019-04-28T01:06:32.096Z,97945.00
2019-04-28T01:11:41.406Z,97949.00
2019-04-28T01:16:54.374Z,97954.00
2019-04-28T01:22:13.334Z,97953.00
2019-04-28T01:27:30.532Z,97954.00
2019-04-28T01:32:47.377Z,97959.00
2019-04-28T01:37:57.257Z,97967.00
2019-04-28T01:43:05.179Z,97968.00
2019-04-28T01:48:13.473Z,97967.00
2019-04-28T01:53:21.306Z,97957.00
2019-04-28T01:58:29.804Z,97966.00
2019-04-28T02:03:40.302Z,97962.00
2019-04-28T02:08:51.297Z,97968.00
2019-04-28T02:14:00.577Z,97961.00
2019-04-28T02:19:10.649Z,97956.00
2019-04-28T02:24:37.737Z,97946.00
2019-04-28T02:29:45.670Z,97944.00
2019-04-28T02:34:52.952Z,97944.00
2019-04-28T02:40:03.303Z,97965.00
2019-04-28T02:45:11.694Z,97969.00
2019-04-28T02:50:21.273Z,97980.00
2019-04-28T02:55:31.683Z,97981.00
2019-04-28T03:00:41.213Z,97994.00
2019-04-28T03:05:51.233Z,98000.00
2019-04-28T03:11:00.613Z,98003.00
2019-04-28T03:16:10.676Z,98008.00
2019-04-28T03:21:17.724Z,98008.00
2019-04-28T03:26:43.315Z,98002.00
2019-04-28T03:32:15.838Z,97993.00
2019-04-28T03:37:02.553Z,97995.00
2019-04-28T03:42:11.791Z,98006.00
2019-04-28T03:47:21.326Z,98000.00
2019-04-28T03:52:31.851Z,97999.00
2019-04-28T03:57:41.496Z,98016.00
2019-04-28T04:02:51.308Z,98026.00
2019-04-28T04:08:00.809Z,98032.00
2019-04-28T04:13:13.879Z,98039.00
2019-04-28T04:18:26.090Z,98023.00
2019-04-28T04:23:34.949Z,98029.00
2019-04-28T04:28:43.226Z,98024.00
2019-04-28T04:33:50.974Z,98028.00
2019-04-28T04:39:01.416Z,98030.00
2019-04-28T04:44:11.272Z,98025.00
2019-04-28T04:49:21.518Z,98033.00
2019-04-28T04:54:32.738Z,98036.00
2019-04-28T04:59:41.816Z,98048.00
2019-04-28T05:05:03.521Z,98064.00
2019-04-28T05:10:11.000Z,98071.00
2019-04-28T05:15:20.354Z,98070.00
2019-04-28T05:20:30.118Z,98090.00
2019-04-28T05:25:41.374Z,98080.00
2019-04-28T05:30:50.217Z,98081.00
2019-04-28T05:36:03.351Z,98068.00
2019-04-28T05:41:13.246Z,98078.00
2019-04-28T05:46:21.303Z,98080.00
2019-04-28T05:51:33.588Z,98084.00
2019-04-28T05:57:02.343Z,98099.00
2019-04-28T06:02:21.913Z,98097.00
2019-04-28T06:07:31.124Z,98107.00
2019-04-28T06:12:40.542Z,98095.00
2019-04-28T06:17:51.324Z,98106.00
2019-04-28T06:22:58.665Z,98107.00
2019-04-28T06:28:05.801Z,98122.00
2019-04-28T06:33:13.068Z,98129.00
2019-04-28T06:38:21.954Z,98131.00
2019-04-28T06:43:31.721Z,98138.00
2019-04-28T06:48:39.844Z,98131.00
2019-04-28T06:53:48.273Z,98139.00
2019-04-28T06:58:59.085Z,98127.00
2019-04-28T07:04:05.944Z,98147.00
2019-04-28T07:09:13.821Z,98150.00
2019-04-28T07:14:21.666Z,98163.00
2019-04-28T07:19:33.383Z,98153.00
2019-04-28T07:24:54.317Z,98165.00
2019-04-28T07:30:03.198Z,98167.00
2019-04-28T07:35:13.740Z,98182.00
2019-04-28T07:40:23.213Z,98174.00
2019-04-28T07:45:31.102Z,98195.00
2019-04-28T07:50:39.726Z,98191.00
2019-04-28T07:55:48.278Z,98208.00
2019-04-28T08:00:56.087Z,98211.00
2019-04-28T08:06:05.762Z,98223.00
2019-04-28T08:11:14.069Z,98221.00
2019-04-28T08:16:23.262Z,98234.00
2019-04-28T08:21:31.166Z,98217.00
2019-04-28T08:26:39.464Z,98238.00
2019-04-28T08:32:04.265Z,98226.00
2019-04-28T08:37:30.403Z,98244.00
2019-04-28T08:42:40.088Z,98250.00
2019-04-28T08:47:54.856Z,98238.00
2019-04-28T08:53:20.299Z,98244.00
2019-04-28T08:58:45.935Z,98245.00
2019-04-28T09:03:54.189Z,98245.00
2019-04-28T09:09:02.360Z,98244.00
2019-04-28T09:14:12.239Z,98246.00
2019-04-28T09:19:21.010Z,98262.00
2019-04-28T09:24:47.670Z,98257.00
2019-04-28T09:29:54.951Z,98247.00
2019-04-28T09:35:05.395Z,98253.00
2019-04-28T09:40:14.855Z,98245.00
2019-04-28T09:45:30.393Z,98247.00
2019-04-28T09:50:39.466Z,98239.00
2019-04-28T09:55:47.793Z,98230.00
2019-04-28T10:00:59.725Z,98235.00
2019-04-28T10:06:09.782Z,98251.00
2019-04-28T10:11:29.968Z,98250.00
2019-04-28T10:16:28.506Z,98269.00
2019-04-28T10:21:36.313Z,98291.00
2019-04-28T10:26:43.550Z,98282.00
2019-04-28T10:31:51.420Z,98283.00
2019-04-28T10:36:59.827Z,98294.00
2019-04-28T10:42:08.338Z,98296.00
2019-04-28T10:47:18.023Z,98294.00
2019-04-28T10:52:26.458Z,98291.00
2019-04-28T10:57:34.737Z,98288.00
2019-04-28T11:02:43.239Z,98281.00
2019-04-28T11:07:52.461Z,98283.00
2019-04-28T11:12:59.823Z,98288.00
2019-04-28T11:18:10.172Z,98279.00
2019-04-28T11:23:18.464Z,98273.00
2019-04-28T11:28:27.021Z,98264.00
2019-04-28T11:33:44.174Z,98252.00
2019-04-28T11:38:51.583Z,98245.00
2019-04-28T11:44:00.005Z,98253.00
2019-04-28T11:49:08.184Z,98272.00
2019-04-28T11:54:16.759Z,98260.00
2019-04-28T11:59:24.683Z,98257.00
2019-04-28T12:04:32.793Z,98253.00
2019-04-28T12:10:04.186Z,98264.00
2019-04-28T12:15:10.718Z,98257.00
2019-04-28T12:20:20.669Z,98263.00
2019-04-28T12:25:28.890Z,98271.00
2019-04-28T12:30:38.078Z,98258.00
2019-04-28T12:35:47.883Z,98260.00
2019-04-28T12:40:55.641Z,98262.00
2019-04-28T12:46:05.226Z,98273.00
2019-04-28T12:51:14.156Z,98269.00
2019-04-28T12:56:22.452Z,98257.00
2019-04-28T13:01:38.145Z,98261.00
2019-04-28T13:06:47.039Z,98263.00
2019-04-28T13:11:54.760Z,98256.00
2019-04-28T13:17:03.741Z,98257.00
2019-04-28T13:22:12.822Z,98263.00
2019-04-28T13:27:21.317Z,98251.00
2019-04-28T13:32:29.813Z,98247.00
2019-04-28T13:37:38.052Z,98248.00
2019-04-28T13:42:45.670Z,98254.00
2019-04-28T13:47:54.139Z,98237.00
2019-04-28T13:53:03.506Z,98236.00
2019-04-28T13:58:12.123Z,98243.00
2019-04-28T14:03:35.957Z,98254.00
2019-04-28T14:08:43.478Z,98250.00
2019-04-28T14:13:51.052Z,98241.00
2019-04-28T14:19:00.004Z,98253.00
2019-04-28T14:24:14.007Z,98252.00
2019-04-28T14:29:23.855Z,98263.00
2019-04-28T14:34:31.904Z,98258.00
2019-04-28T14:39:42.317Z,98262.00
2019-04-28T14:44:53.237Z,98266.00
2019-04-28T14:50:03.831Z,98269.00
2019-04-28T14:55:12.021Z,98258.00
2019-04-28T15:00:21.219Z,98258.00
2019-04-28T15:05:32.414Z,98257.00
2019-04-28T15:10:54.867Z,98270.00
2019-04-28T15:16:03.121Z,98271.00
2019-04-28T15:21:12.883Z,98257.00
2019-04-28T15:26:30.166Z,98260.00
2019-04-28T15:31:39.329Z,98260.00
2019-04-28T15:36:46.993Z,98255.00
2019-04-28T15:41:55.883Z,98271.00
2019-04-28T15:47:03.678Z,98264.00
2019-04-28T15:52:11.716Z,98258.00
2019-04-28T15:57:20.279Z,98271.00
2019-04-28T16:02:28.718Z,98269.00
2019-04-28T16:07:37.744Z,98259.00
2019-04-28T16:12:45.035Z,98269.00
2019-04-28T16:17:52.725Z,98278.00
2019-04-28T16:23:01.426Z,98268.00
2019-04-28T16:28:10.100Z,98265.00
2019-04-28T16:33:17.729Z,98265.00
2019-04-28T16:38:26.332Z,98280.00
2019-04-28T16:43:33.612Z,98275.00
2019-04-28T16:48:40.931Z,98288.00
2019-04-28T16:53:49.305Z,98282.00
2019-04-28T16:59:15.147Z,98289.00
2019-04-28T17:04:23.948Z,98288.00
2019-04-28T17:09:34.092Z,98293.00
2019-04-28T17:14:43.398Z,98292.00
2019-04-28T17:19:52.623Z,98298.00
2019-04-28T17:25:00.924Z,98299.00
2019-04-28T17:30:12.030Z,98301.00
2019-04-28T17:35:19.527Z,98311.00
2019-04-28T17:40:29.393Z,98322.00
2019-04-28T17:45:37.393Z,98317.00
2019-04-28T17:50:45.407Z,98318.00
2019-04-28T17:55:54.130Z,98325.00
2019-04-28T18:01:07.762Z,98325.00
2019-04-28T18:06:17.952Z,98336.00
2019-04-28T18:11:26.522Z,98336.00
2019-04-28T18:16:43.567Z,98337.00
2019-04-28T18:21:51.312Z,98343.00
2019-04-28T18:26:58.988Z,98349.00
2019-04-28T18:32:18.407Z,98358.00
2019-04-28T18:37:46.348Z,98365.00
2019-04-28T18:42:56.350Z,98367.00
2019-04-28T18:48:07.229Z,98376.00
2019-04-28T18:53:17.112Z,98380.00
2019-04-28T18:58:25.715Z,98394.00
2019-04-28T19:03:34.875Z,98396.00
2019-04-28T19:08:49.357Z,98399.00
2019-04-28T19:13:54.884Z,98409.00
2019-04-28T19:19:06.893Z,98410.00
2019-04-28T19:24:14.818Z,98416.00
2019-04-28T19:29:23.768Z,98415.00
2019-04-28T19:34:31.448Z,98419.00
2019-04-28T19:39:40.947Z,98426.00
2019-04-28T19:44:49.841Z,98421.00
2019-04-28T19:49:59.407Z,98424.00
2019-04-28T19:55:11.070Z,98420.00
2019-04-28T20:00:25.591Z,98432.00
2019-04-28T20:05:51.390Z,98435.00
2019-04-28T20:11:17.752Z,98434.00
2019-04-28T20:16:32.457Z,98424.00
2019-04-28T20:21:59.302Z,98422.00
2019-04-28T20:27:26.082Z,98419.00
2019-04-28T20:32:51.715Z,98420.00
2019-04-28T20:38:30.982Z,98418.00
2019-04-28T20:43:39.296Z,98424.00
2019-04-28T20:48:49.298Z,98428.00
2019-04-28T20:53:58.820Z,98435.00
2019-04-28T20:59:07.847Z,98429.00
2019-04-28T21:04:16.289Z,98427.00
2019-04-28T21:09:25.244Z,98423.00
2019-04-28T21:14:33.660Z,98432.00
2019-04-28T21:19:42.701Z,98434.00
2019-04-28T21:24:51.830Z,98424.00
2019-04-28T21:29:59.194Z,98427.00
2019-04-28T21:35:07.542Z,98430.00
2019-04-28T21:40:16.639Z,98424.00
2019-04-28T21:45:44.150Z,98421.00
2019-04-28T21:50:51.820Z,98426.00
2019-04-28T21:56:00.253Z,98431.00
2019-04-28T22:01:09.799Z,98432.00
2019-04-28T22:06:18.791Z,98436.00
2019-04-28T22:11:27.370Z,98428.00
2019-04-28T22:16:34.974Z,98434.00
2019-04-28T22:21:43.305Z,98435.00
2019-04-28T22:26:52.729Z,98437.00
2019-04-28T22:32:00.155Z,98447.00
2019-04-28T22:37:08.112Z,98448.00
2019-04-28T22:42:17.727Z,98439.00
2019-04-28T23:08:37.909Z,98460.00
2019-04-28T23:13:45.647Z,98458.00
2019-04-28T23:18:53.409Z,98452.00
2019-04-28T23:24:01.167Z,98450.00
2019-04-28T23:29:09.364Z,98446.00
2019-04-28T23:34:16.755Z,98443.00
2019-04-28T23:39:26.265Z,98447.00
2019-04-28T23:44:33.673Z,98443.00
2019-04-28T23:49:43.601Z,98435.00
2019-04-28T23:54:52.487Z,98442.00
2019-04-28T23:59:59.791Z,98431.00
